sensor_id;sensor_type;location;lat;lon;timestamp;P1;durP1;ratioP1;P2;durP2;ratioP2
44728;SDS011;30457;53.590;9.922;2023-02-26T00:01:12;3.20;;;0.70;;
44728;SDS011;30457;53.590;9.922;2023-02-26T00:05:43;7.45;;;1.33;;
44728;SDS011;30457;53.590;9.922;2023-02-26T00:10:10;4.97;;;0.80;;
44728;SDS011;30457;53.590;9.922;2023-02-26T00:14:37;1.80;;;0.73;;
44728;SDS011;30457;53.590;9.922;2023-02-26T00:19:03;2.53;;;1.48;;
44728;SDS011;30457;53.590;9.922;2023-02-26T00:23:30;1.17;;;0.55;;
44728;SDS011;30457;53.590;9.922;2023-02-26T00:27:56;4.22;;;1.15;;
44728;SDS011;30457;53.590;9.922;2023-02-26T00:32:22;3.38;;;1.50;;
44728;SDS011;30457;53.590;9.922;2023-02-26T00:36:59;1.05;;;0.70;;
44728;SDS011;30457;53.590;9.922;2023-02-26T00:41:56;2.95;;;0.70;;
44728;SDS011;30457;53.590;9.922;2023-02-26T00:46:34;1.88;;;0.50;;
44728;SDS011;30457;53.590;9.922;2023-02-26T00:51:11;2.08;;;0.80;;
44728;SDS011;30457;53.590;9.922;2023-02-26T00:55:55;1.05;;;0.75;;
44728;SDS011;30457;53.590;9.922;2023-02-26T01:00:20;5.40;;;0.90;;
44728;SDS011;30457;53.590;9.922;2023-02-26T01:04:46;1.48;;;0.80;;
44728;SDS011;30457;53.590;9.922;2023-02-26T01:09:15;1.40;;;0.80;;
44728;SDS011;30457;53.590;9.922;2023-02-26T01:13:49;1.30;;;0.70;;
44728;SDS011;30457;53.590;9.922;2023-02-26T01:18:20;2.67;;;0.70;;
44728;SDS011;30457;53.590;9.922;2023-02-26T01:23:19;2.45;;;0.65;;
44728;SDS011;30457;53.590;9.922;2023-02-26T01:27:49;0.98;;;0.55;;
44728;SDS011;30457;53.590;9.922;2023-02-26T01:32:19;1.90;;;0.95;;
44728;SDS011;30457;53.590;9.922;2023-02-26T01:37:26;4.65;;;1.27;;
44728;SDS011;30457;53.590;9.922;2023-02-26T01:42:04;1.02;;;0.80;;
44728;SDS011;30457;53.590;9.922;2023-02-26T01:56:16;2.08;;;0.90;;
44728;SDS011;30457;53.590;9.922;2023-02-26T02:00:43;1.08;;;0.80;;
44728;SDS011;30457;53.590;9.922;2023-02-26T02:05:53;3.35;;;0.77;;
44728;SDS011;30457;53.590;9.922;2023-02-26T02:10:24;1.50;;;0.80;;
44728;SDS011;30457;53.590;9.922;2023-02-26T02:34:05;1.58;;;1.05;;
44728;SDS011;30457;53.590;9.922;2023-02-26T02:38:47;1.52;;;0.80;;
44728;SDS011;30457;53.590;9.922;2023-02-26T02:43:21;3.55;;;0.90;;
44728;SDS011;30457;53.590;9.922;2023-02-26T02:47:52;1.67;;;0.80;;
44728;SDS011;30457;53.590;9.922;2023-02-26T02:52:25;1.25;;;0.63;;
44728;SDS011;30457;53.590;9.922;2023-02-26T02:57:03;5.78;;;1.08;;
44728;SDS011;30457;53.590;9.922;2023-02-26T03:01:38;2.97;;;0.98;;
44728;SDS011;30457;53.590;9.922;2023-02-26T03:06:05;2.50;;;1.00;;
44728;SDS011;30457;53.590;9.922;2023-02-26T03:10:31;4.20;;;1.00;;
44728;SDS011;30457;53.590;9.922;2023-02-26T03:14:58;2.80;;;0.65;;
44728;SDS011;30457;53.590;9.922;2023-02-26T03:24:18;1.75;;;0.98;;
44728;SDS011;30457;53.590;9.922;2023-02-26T03:29:04;2.78;;;1.00;;
44728;SDS011;30457;53.590;9.922;2023-02-26T03:33:41;1.45;;;1.00;;
44728;SDS011;30457;53.590;9.922;2023-02-26T03:38:29;2.58;;;0.68;;
44728;SDS011;30457;53.590;9.922;2023-02-26T03:43:11;2.03;;;0.90;;
44728;SDS011;30457;53.590;9.922;2023-02-26T03:47:54;3.28;;;0.82;;
44728;SDS011;30457;53.590;9.922;2023-02-26T03:52:23;3.17;;;0.90;;
44728;SDS011;30457;53.590;9.922;2023-02-26T03:57:13;2.72;;;0.95;;
44728;SDS011;30457;53.590;9.922;2023-02-26T04:02:02;3.53;;;0.80;;
44728;SDS011;30457;53.590;9.922;2023-02-26T04:06:42;5.28;;;0.90;;
44728;SDS011;30457;53.590;9.922;2023-02-26T04:11:13;1.48;;;0.65;;
44728;SDS011;30457;53.590;9.922;2023-02-26T04:15:43;1.05;;;0.82;;
44728;SDS011;30457;53.590;9.922;2023-02-26T04:20:09;3.75;;;0.73;;
44728;SDS011;30457;53.590;9.922;2023-02-26T04:24:36;1.17;;;0.75;;
44728;SDS011;30457;53.590;9.922;2023-02-26T04:29:02;34.08;;;4.95;;
44728;SDS011;30457;53.590;9.922;2023-02-26T04:33:28;2.30;;;0.93;;
44728;SDS011;30457;53.590;9.922;2023-02-26T04:37:53;2.80;;;0.80;;
44728;SDS011;30457;53.590;9.922;2023-02-26T04:42:19;4.57;;;1.02;;
44728;SDS011;30457;53.590;9.922;2023-02-26T04:46:46;2.63;;;1.80;;
44728;SDS011;30457;53.590;9.922;2023-02-26T04:51:12;1.75;;;0.80;;
44728;SDS011;30457;53.590;9.922;2023-02-26T04:55:38;1.33;;;0.88;;
44728;SDS011;30457;53.590;9.922;2023-02-26T05:00:05;2.58;;;2.08;;
44728;SDS011;30457;53.590;9.922;2023-02-26T05:04:33;2.35;;;0.88;;
44728;SDS011;30457;53.590;9.922;2023-02-26T05:08:59;4.10;;;0.85;;
44728;SDS011;30457;53.590;9.922;2023-02-26T05:13:25;1.15;;;0.52;;
44728;SDS011;30457;53.590;9.922;2023-02-26T05:17:50;1.83;;;0.52;;
44728;SDS011;30457;53.590;9.922;2023-02-26T05:22:16;1.17;;;0.55;;
44728;SDS011;30457;53.590;9.922;2023-02-26T05:26:42;1.83;;;0.75;;
44728;SDS011;30457;53.590;9.922;2023-02-26T05:31:08;1.25;;;0.63;;
44728;SDS011;30457;53.590;9.922;2023-02-26T05:35:34;2.00;;;0.80;;
44728;SDS011;30457;53.590;9.922;2023-02-26T05:39:59;3.08;;;1.00;;
44728;SDS011;30457;53.590;9.922;2023-02-26T05:44:25;2.05;;;0.77;;
44728;SDS011;30457;53.590;9.922;2023-02-26T05:48:59;1.95;;;1.02;;
44728;SDS011;30457;53.590;9.922;2023-02-26T05:53:25;3.28;;;1.20;;
44728;SDS011;30457;53.590;9.922;2023-02-26T05:57:51;5.05;;;1.38;;
44728;SDS011;30457;53.590;9.922;2023-02-26T06:02:16;4.60;;;0.60;;
44728;SDS011;30457;53.590;9.922;2023-02-26T06:06:42;1.75;;;0.60;;
44728;SDS011;30457;53.590;9.922;2023-02-26T06:11:08;3.90;;;0.95;;
44728;SDS011;30457;53.590;9.922;2023-02-26T06:15:33;4.57;;;1.08;;
44728;SDS011;30457;53.590;9.922;2023-02-26T06:19:59;7.30;;;1.10;;
44728;SDS011;30457;53.590;9.922;2023-02-26T06:24:25;2.25;;;1.08;;
44728;SDS011;30457;53.590;9.922;2023-02-26T06:28:51;3.05;;;0.93;;
44728;SDS011;30457;53.590;9.922;2023-02-26T06:33:16;0.98;;;0.90;;
44728;SDS011;30457;53.590;9.922;2023-02-26T06:37:42;6.22;;;0.90;;
44728;SDS011;30457;53.590;9.922;2023-02-26T06:42:08;3.60;;;0.80;;
44728;SDS011;30457;53.590;9.922;2023-02-26T06:46:33;1.23;;;0.70;;
44728;SDS011;30457;53.590;9.922;2023-02-26T06:50:59;0.95;;;0.70;;
44728;SDS011;30457;53.590;9.922;2023-02-26T06:55:24;3.95;;;1.50;;
44728;SDS011;30457;53.590;9.922;2023-02-26T06:59:53;2.05;;;1.10;;
44728;SDS011;30457;53.590;9.922;2023-02-26T07:04:18;3.78;;;0.90;;
44728;SDS011;30457;53.590;9.922;2023-02-26T07:08:44;2.30;;;1.00;;
44728;SDS011;30457;53.590;9.922;2023-02-26T07:13:10;1.75;;;0.90;;
44728;SDS011;30457;53.590;9.922;2023-02-26T07:17:35;1.02;;;0.77;;
44728;SDS011;30457;53.590;9.922;2023-02-26T07:22:01;2.67;;;0.80;;
44728;SDS011;30457;53.590;9.922;2023-02-26T07:26:26;3.10;;;0.90;;
44728;SDS011;30457;53.590;9.922;2023-02-26T07:30:55;3.30;;;1.50;;
44728;SDS011;30457;53.590;9.922;2023-02-26T07:35:21;5.97;;;1.25;;
44728;SDS011;30457;53.590;9.922;2023-02-26T07:39:47;3.90;;;1.40;;
44728;SDS011;30457;53.590;9.922;2023-02-26T07:44:13;2.58;;;1.00;;
44728;SDS011;30457;53.590;9.922;2023-02-26T07:48:39;0.73;;;0.73;;
44728;SDS011;30457;53.590;9.922;2023-02-26T07:53:05;4.63;;;1.10;;
44728;SDS011;30457;53.590;9.922;2023-02-26T07:57:30;3.85;;;1.50;;
44728;SDS011;30457;53.590;9.922;2023-02-26T08:01:56;1.50;;;1.05;;
44728;SDS011;30457;53.590;9.922;2023-02-26T08:06:21;1.38;;;0.90;;
44728;SDS011;30457;53.590;9.922;2023-02-26T08:10:47;1.77;;;1.40;;
44728;SDS011;30457;53.590;9.922;2023-02-26T08:15:13;2.03;;;1.00;;
44728;SDS011;30457;53.590;9.922;2023-02-26T08:19:39;3.03;;;1.02;;
44728;SDS011;30457;53.590;9.922;2023-02-26T08:24:04;5.95;;;1.10;;
44728;SDS011;30457;53.590;9.922;2023-02-26T08:28:30;1.67;;;1.02;;
44728;SDS011;30457;53.590;9.922;2023-02-26T08:32:56;1.27;;;0.90;;
44728;SDS011;30457;53.590;9.922;2023-02-26T08:37:22;1.42;;;0.65;;
44728;SDS011;30457;53.590;9.922;2023-02-26T08:41:48;2.25;;;1.40;;
44728;SDS011;30457;53.590;9.922;2023-02-26T08:46:13;4.47;;;1.95;;
44728;SDS011;30457;53.590;9.922;2023-02-26T08:50:39;1.90;;;1.20;;
44728;SDS011;30457;53.590;9.922;2023-02-26T08:55:05;1.75;;;0.90;;
44728;SDS011;30457;53.590;9.922;2023-02-26T08:59:31;1.10;;;0.90;;
44728;SDS011;30457;53.590;9.922;2023-02-26T09:03:56;3.75;;;1.30;;
44728;SDS011;30457;53.590;9.922;2023-02-26T09:08:22;2.78;;;1.80;;
44728;SDS011;30457;53.590;9.922;2023-02-26T09:12:48;1.65;;;1.10;;
44728;SDS011;30457;53.590;9.922;2023-02-26T09:17:13;1.65;;;0.70;;
44728;SDS011;30457;53.590;9.922;2023-02-26T09:21:39;1.75;;;0.80;;
44728;SDS011;30457;53.590;9.922;2023-02-26T09:26:04;2.20;;;1.23;;
44728;SDS011;30457;53.590;9.922;2023-02-26T09:30:32;5.13;;;1.27;;
44728;SDS011;30457;53.590;9.922;2023-02-26T09:34:58;1.83;;;1.10;;
44728;SDS011;30457;53.590;9.922;2023-02-26T09:39:24;4.20;;;0.90;;
44728;SDS011;30457;53.590;9.922;2023-02-26T09:43:59;0.88;;;0.80;;
44728;SDS011;30457;53.590;9.922;2023-02-26T09:48:27;4.53;;;1.15;;
44728;SDS011;30457;53.590;9.922;2023-02-26T09:52:56;2.25;;;0.82;;
44728;SDS011;30457;53.590;9.922;2023-02-26T09:57:32;2.80;;;1.30;;
44728;SDS011;30457;53.590;9.922;2023-02-26T10:06:30;1.95;;;0.90;;
44728;SDS011;30457;53.590;9.922;2023-02-26T10:11:07;4.10;;;2.65;;
44728;SDS011;30457;53.590;9.922;2023-02-26T10:15:52;6.97;;;3.33;;
44728;SDS011;30457;53.590;9.922;2023-02-26T10:20:35;3.67;;;1.10;;
44728;SDS011;30457;53.590;9.922;2023-02-26T10:25:20;7.03;;;1.35;;
44728;SDS011;30457;53.590;9.922;2023-02-26T10:34:38;6.97;;;1.73;;
44728;SDS011;30457;53.590;9.922;2023-02-26T10:39:15;9.48;;;3.30;;
44728;SDS011;30457;53.590;9.922;2023-02-26T10:44:18;2.58;;;0.90;;
44728;SDS011;30457;53.590;9.922;2023-02-26T10:54:17;7.95;;;2.90;;
44728;SDS011;30457;53.590;9.922;2023-02-26T10:59:04;5.07;;;2.45;;
44728;SDS011;30457;53.590;9.922;2023-02-26T11:03:31;2.13;;;0.93;;
44728;SDS011;30457;53.590;9.922;2023-02-26T11:08:03;4.22;;;1.55;;
44728;SDS011;30457;53.590;9.922;2023-02-26T11:12:35;1.13;;;1.00;;
44728;SDS011;30457;53.590;9.922;2023-02-26T11:17:03;1.25;;;0.80;;
44728;SDS011;30457;53.590;9.922;2023-02-26T11:21:35;1.65;;;0.85;;
44728;SDS011;30457;53.590;9.922;2023-02-26T11:26:05;1.70;;;1.10;;
44728;SDS011;30457;53.590;9.922;2023-02-26T11:30:36;3.67;;;1.17;;
44728;SDS011;30457;53.590;9.922;2023-02-26T11:35:02;1.65;;;0.60;;
44728;SDS011;30457;53.590;9.922;2023-02-26T11:39:33;1.15;;;0.75;;
44728;SDS011;30457;53.590;9.922;2023-02-26T11:44:11;2.15;;;1.15;;
44728;SDS011;30457;53.590;9.922;2023-02-26T11:48:44;1.17;;;0.70;;
44728;SDS011;30457;53.590;9.922;2023-02-26T11:53:16;1.55;;;1.08;;
44728;SDS011;30457;53.590;9.922;2023-02-26T11:57:56;3.63;;;1.40;;
44728;SDS011;30457;53.590;9.922;2023-02-26T12:02:23;7.20;;;2.47;;
44728;SDS011;30457;53.590;9.922;2023-02-26T12:06:52;1.98;;;0.70;;
44728;SDS011;30457;53.590;9.922;2023-02-26T12:16:16;2.28;;;0.73;;
44728;SDS011;30457;53.590;9.922;2023-02-26T12:21:01;4.05;;;0.90;;
44728;SDS011;30457;53.590;9.922;2023-02-26T12:30:26;1.73;;;1.02;;
44728;SDS011;30457;53.590;9.922;2023-02-26T12:35:20;4.20;;;1.65;;
44728;SDS011;30457;53.590;9.922;2023-02-26T12:44:18;0.93;;;0.90;;
44728;SDS011;30457;53.590;9.922;2023-02-26T13:03:26;2.53;;;0.95;;
44728;SDS011;30457;53.590;9.922;2023-02-26T13:08:11;2.47;;;1.02;;
44728;SDS011;30457;53.590;9.922;2023-02-26T13:17:20;3.75;;;0.95;;
44728;SDS011;30457;53.590;9.922;2023-02-26T13:22:07;1.52;;;0.98;;
44728;SDS011;30457;53.590;9.922;2023-02-26T13:26:41;4.35;;;1.00;;
44728;SDS011;30457;53.590;9.922;2023-02-26T13:31:25;2.58;;;0.82;;
44728;SDS011;30457;53.590;9.922;2023-02-26T13:36:03;1.37;;;0.43;;
44728;SDS011;30457;53.590;9.922;2023-02-26T13:45:50;4.25;;;1.08;;
44728;SDS011;30457;53.590;9.922;2023-02-26T13:55:34;2.88;;;1.13;;
44728;SDS011;30457;53.590;9.922;2023-02-26T14:00:21;4.28;;;0.60;;
44728;SDS011;30457;53.590;9.922;2023-02-26T14:04:56;2.35;;;0.80;;
44728;SDS011;30457;53.590;9.922;2023-02-26T14:18:39;2.20;;;0.95;;
44728;SDS011;30457;53.590;9.922;2023-02-26T14:23:33;3.00;;;0.82;;
44728;SDS011;30457;53.590;9.922;2023-02-26T14:28:53;2.15;;;0.93;;
44728;SDS011;30457;53.590;9.922;2023-02-26T14:32:53;2.08;;;0.80;;
44728;SDS011;30457;53.590;9.922;2023-02-26T14:37:27;2.20;;;0.60;;
44728;SDS011;30457;53.590;9.922;2023-02-26T14:41:57;4.80;;;0.90;;
44728;SDS011;30457;53.590;9.922;2023-02-26T14:46:26;2.70;;;1.15;;
44728;SDS011;30457;53.590;9.922;2023-02-26T14:55:29;1.95;;;0.80;;
44728;SDS011;30457;53.590;9.922;2023-02-26T15:19:39;1.20;;;0.70;;
44728;SDS011;30457;53.590;9.922;2023-02-26T15:24:11;0.80;;;0.60;;
44728;SDS011;30457;53.590;9.922;2023-02-26T15:28:39;3.45;;;1.48;;
44728;SDS011;30457;53.590;9.922;2023-02-26T15:33:09;0.65;;;0.50;;
44728;SDS011;30457;53.590;9.922;2023-02-26T15:37:37;0.95;;;0.68;;
44728;SDS011;30457;53.590;9.922;2023-02-26T15:42:03;2.85;;;1.00;;
44728;SDS011;30457;53.590;9.922;2023-02-26T15:46:31;4.82;;;1.08;;
44728;SDS011;30457;53.590;9.922;2023-02-26T15:51:01;1.05;;;0.73;;
44728;SDS011;30457;53.590;9.922;2023-02-26T15:55:35;1.48;;;0.80;;
44728;SDS011;30457;53.590;9.922;2023-02-26T16:00:08;2.85;;;0.68;;
44728;SDS011;30457;53.590;9.922;2023-02-26T16:04:40;1.58;;;0.63;;
44728;SDS011;30457;53.590;9.922;2023-02-26T16:09:07;1.58;;;0.80;;
44728;SDS011;30457;53.590;9.922;2023-02-26T16:13:40;2.15;;;0.90;;
44728;SDS011;30457;53.590;9.922;2023-02-26T16:18:10;3.63;;;1.10;;
44728;SDS011;30457;53.590;9.922;2023-02-26T16:22:45;3.10;;;0.95;;
44728;SDS011;30457;53.590;9.922;2023-02-26T16:27:24;3.05;;;1.00;;
44728;SDS011;30457;53.590;9.922;2023-02-26T16:31:56;6.65;;;1.35;;
44728;SDS011;30457;53.590;9.922;2023-02-26T16:36:23;1.65;;;1.00;;
44728;SDS011;30457;53.590;9.922;2023-02-26T16:40:56;6.32;;;2.05;;
44728;SDS011;30457;53.590;9.922;2023-02-26T16:49:58;2.05;;;0.85;;
44728;SDS011;30457;53.590;9.922;2023-02-26T16:54:48;2.38;;;1.00;;
44728;SDS011;30457;53.590;9.922;2023-02-26T16:59:19;5.35;;;0.65;;
44728;SDS011;30457;53.590;9.922;2023-02-26T17:03:59;2.78;;;1.17;;
44728;SDS011;30457;53.590;9.922;2023-02-26T17:08:27;8.20;;;1.42;;
44728;SDS011;30457;53.590;9.922;2023-02-26T17:13:09;1.15;;;0.95;;
44728;SDS011;30457;53.590;9.922;2023-02-26T17:17:47;3.83;;;1.08;;
44728;SDS011;30457;53.590;9.922;2023-02-26T17:22:14;3.83;;;1.40;;
44728;SDS011;30457;53.590;9.922;2023-02-26T17:26:41;1.27;;;0.90;;
44728;SDS011;30457;53.590;9.922;2023-02-26T17:31:08;2.22;;;1.00;;
44728;SDS011;30457;53.590;9.922;2023-02-26T17:35:34;1.30;;;1.00;;
44728;SDS011;30457;53.590;9.922;2023-02-26T17:40:00;4.30;;;1.52;;
44728;SDS011;30457;53.590;9.922;2023-02-26T17:44:27;2.15;;;1.48;;
44728;SDS011;30457;53.590;9.922;2023-02-26T17:48:53;4.68;;;1.70;;
44728;SDS011;30457;53.590;9.922;2023-02-26T17:53:19;4.88;;;1.98;;
44728;SDS011;30457;53.590;9.922;2023-02-26T17:57:46;2.50;;;1.75;;
44728;SDS011;30457;53.590;9.922;2023-02-26T18:02:14;2.22;;;1.40;;
44728;SDS011;30457;53.590;9.922;2023-02-26T18:06:41;5.32;;;2.15;;
44728;SDS011;30457;53.590;9.922;2023-02-26T18:11:07;4.95;;;1.92;;
44728;SDS011;30457;53.590;9.922;2023-02-26T18:15:35;2.42;;;1.55;;
44728;SDS011;30457;53.590;9.922;2023-02-26T18:20:01;6.95;;;1.63;;
44728;SDS011;30457;53.590;9.922;2023-02-26T18:24:30;4.38;;;1.60;;
44728;SDS011;30457;53.590;9.922;2023-02-26T18:28:56;6.50;;;2.67;;
44728;SDS011;30457;53.590;9.922;2023-02-26T18:33:22;2.45;;;2.03;;
44728;SDS011;30457;53.590;9.922;2023-02-26T18:37:50;5.32;;;1.95;;
44728;SDS011;30457;53.590;9.922;2023-02-26T18:42:20;4.10;;;1.92;;
44728;SDS011;30457;53.590;9.922;2023-02-26T18:46:50;4.47;;;1.90;;
44728;SDS011;30457;53.590;9.922;2023-02-26T18:51:15;4.68;;;1.63;;
44728;SDS011;30457;53.590;9.922;2023-02-26T18:55:41;7.28;;;1.88;;
44728;SDS011;30457;53.590;9.922;2023-02-26T19:00:08;2.33;;;1.75;;
44728;SDS011;30457;53.590;9.922;2023-02-26T19:04:38;3.17;;;1.70;;
44728;SDS011;30457;53.590;9.922;2023-02-26T19:09:04;4.05;;;2.00;;
44728;SDS011;30457;53.590;9.922;2023-02-26T19:13:29;3.88;;;1.50;;
44728;SDS011;30457;53.590;9.922;2023-02-26T19:17:55;1.55;;;1.45;;
44728;SDS011;30457;53.590;9.922;2023-02-26T19:22:21;5.10;;;2.00;;
44728;SDS011;30457;53.590;9.922;2023-02-26T19:26:47;8.30;;;2.05;;
44728;SDS011;30457;53.590;9.922;2023-02-26T19:31:13;5.75;;;2.10;;
44728;SDS011;30457;53.590;9.922;2023-02-26T19:35:38;9.23;;;2.30;;
44728;SDS011;30457;53.590;9.922;2023-02-26T19:40:04;5.53;;;1.98;;
44728;SDS011;30457;53.590;9.922;2023-02-26T19:44:34;7.97;;;1.88;;
44728;SDS011;30457;53.590;9.922;2023-02-26T19:49:00;3.15;;;1.85;;
44728;SDS011;30457;53.590;9.922;2023-02-26T19:53:26;3.15;;;2.08;;
44728;SDS011;30457;53.590;9.922;2023-02-26T19:57:53;1.92;;;1.73;;
44728;SDS011;30457;53.590;9.922;2023-02-26T20:02:19;3.47;;;1.80;;
44728;SDS011;30457;53.590;9.922;2023-02-26T20:06:44;3.90;;;1.80;;
44728;SDS011;30457;53.590;9.922;2023-02-26T20:11:10;5.10;;;2.13;;
44728;SDS011;30457;53.590;9.922;2023-02-26T20:15:36;7.97;;;2.85;;
44728;SDS011;30457;53.590;9.922;2023-02-26T20:20:02;8.48;;;2.70;;
44728;SDS011;30457;53.590;9.922;2023-02-26T20:24:28;5.03;;;2.22;;
44728;SDS011;30457;53.590;9.922;2023-02-26T20:28:56;6.07;;;2.50;;
44728;SDS011;30457;53.590;9.922;2023-02-26T20:33:22;7.50;;;3.03;;
44728;SDS011;30457;53.590;9.922;2023-02-26T20:37:49;11.13;;;2.90;;
44728;SDS011;30457;53.590;9.922;2023-02-26T20:42:14;6.78;;;3.10;;
44728;SDS011;30457;53.590;9.922;2023-02-26T20:46:40;5.20;;;2.45;;
44728;SDS011;30457;53.590;9.922;2023-02-26T20:51:06;4.78;;;2.97;;
44728;SDS011;30457;53.590;9.922;2023-02-26T20:55:34;7.88;;;2.60;;
44728;SDS011;30457;53.590;9.922;2023-02-26T21:00:00;5.53;;;2.90;;
44728;SDS011;30457;53.590;9.922;2023-02-26T21:04:34;6.20;;;2.83;;
44728;SDS011;30457;53.590;9.922;2023-02-26T21:08:59;4.10;;;3.13;;
44728;SDS011;30457;53.590;9.922;2023-02-26T21:13:26;5.35;;;3.70;;
44728;SDS011;30457;53.590;9.922;2023-02-26T21:17:51;6.70;;;3.65;;
44728;SDS011;30457;53.590;9.922;2023-02-26T21:22:18;39.17;;;9.52;;
44728;SDS011;30457;53.590;9.922;2023-02-26T21:26:44;25.17;;;8.93;;
44728;SDS011;30457;53.590;9.922;2023-02-26T21:31:09;32.55;;;8.85;;
44728;SDS011;30457;53.590;9.922;2023-02-26T21:35:35;15.40;;;5.38;;
44728;SDS011;30457;53.590;9.922;2023-02-26T21:40:01;12.10;;;4.75;;
44728;SDS011;30457;53.590;9.922;2023-02-26T21:44:26;11.23;;;4.43;;
44728;SDS011;30457;53.590;9.922;2023-02-26T21:48:52;9.88;;;4.22;;
44728;SDS011;30457;53.590;9.922;2023-02-26T21:53:17;10.55;;;4.57;;
44728;SDS011;30457;53.590;9.922;2023-02-26T21:57:43;10.55;;;4.50;;
44728;SDS011;30457;53.590;9.922;2023-02-26T22:02:09;10.98;;;5.15;;
44728;SDS011;30457;53.590;9.922;2023-02-26T22:06:35;6.47;;;4.43;;
44728;SDS011;30457;53.590;9.922;2023-02-26T22:11:01;6.20;;;4.18;;
44728;SDS011;30457;53.590;9.922;2023-02-26T22:15:27;10.50;;;4.13;;
44728;SDS011;30457;53.590;9.922;2023-02-26T22:19:52;9.20;;;4.82;;
44728;SDS011;30457;53.590;9.922;2023-02-26T22:24:18;8.15;;;3.70;;
44728;SDS011;30457;53.590;9.922;2023-02-26T22:28:43;7.80;;;4.28;;
44728;SDS011;30457;53.590;9.922;2023-02-26T22:33:09;6.10;;;4.00;;
44728;SDS011;30457;53.590;9.922;2023-02-26T22:37:35;13.20;;;4.88;;
44728;SDS011;30457;53.590;9.922;2023-02-26T22:42:01;8.63;;;3.63;;
44728;SDS011;30457;53.590;9.922;2023-02-26T22:46:26;11.20;;;4.80;;
44728;SDS011;30457;53.590;9.922;2023-02-26T22:50:52;8.40;;;4.00;;
44728;SDS011;30457;53.590;9.922;2023-02-26T22:55:18;6.68;;;3.33;;
44728;SDS011;30457;53.590;9.922;2023-02-26T22:59:43;6.32;;;3.97;;
44728;SDS011;30457;53.590;9.922;2023-02-26T23:04:09;6.97;;;4.00;;
44728;SDS011;30457;53.590;9.922;2023-02-26T23:08:35;6.15;;;3.65;;
44728;SDS011;30457;53.590;9.922;2023-02-26T23:13:00;9.45;;;4.63;;
44728;SDS011;30457;53.590;9.922;2023-02-26T23:17:27;5.18;;;3.50;;
44728;SDS011;30457;53.590;9.922;2023-02-26T23:21:52;5.80;;;3.50;;
44728;SDS011;30457;53.590;9.922;2023-02-26T23:26:20;5.63;;;3.65;;
44728;SDS011;30457;53.590;9.922;2023-02-26T23:30:45;4.75;;;3.13;;
44728;SDS011;30457;53.590;9.922;2023-02-26T23:35:11;5.55;;;2.58;;
44728;SDS011;30457;53.590;9.922;2023-02-26T23:39:37;4.90;;;2.97;;
44728;SDS011;30457;53.590;9.922;2023-02-26T23:44:02;5.50;;;2.95;;
44728;SDS011;30457;53.590;9.922;2023-02-26T23:48:28;9.13;;;3.20;;
44728;SDS011;30457;53.590;9.922;2023-02-26T23:52:54;3.83;;;2.53;;
44728;SDS011;30457;53.590;9.922;2023-02-26T23:57:20;5.45;;;3.33;;
